Airfield :
LOGIN :

Register | Disclaimer

   EN    FR    IT 

 










Legend :    VFR   Marginal VFR   IFR   Intensive IFR   Very Intensive IFR
Visi :
Ceiling :
>= 8 km
>= 3000ft
5 to 8 km
1000 to 3000 ft
1500m to 5 km
500 to 1000 ft
800 to 1500m
200 to 500 ft
< 800m
< 200 ft
Symbols :   Thunderstorms  Fog  Heavy snow  Heavy precipitations  Wind > 20 kt
SIGMETs :     Misc.  Thunderstorms  Icing  Turbulence  Mountain Waves  Volcanic Ashes







- Airport Elevation : 1516 ft
- IATA code : AGB


EDMA - Augsburg

CURRENT METAR :
  • 251450Z 30007KT 270V330 CAVOK 20/08 Q1022

EXPIRED METARs :
  • 251420Z VRB04KT CAVOK 20/09 Q1022
  • 251350Z 31004KT 280V340 9999 FEW040 SCT067 18/08 Q1023
  • 251320Z 33004KT 240V020 9999 FEW043 SCT050 BKN067 19/09 Q1022
  • 251250Z VRB04KT 9999 FEW046 SCT074 19/09 Q1022
  • 251220Z 36005KT 330V040 9999 FEW036 SCT067 18/09 Q1023

TAF TAF EDMA
Valid from the 25 at 15:00 until the 26 at 00:00 UTC


251400Z 2515/2524 33005KT 9999 FEW045
BECMG 2518/2520 VRB03KT
No reported NOTAMs for that airfield.



MET'MAP, your aeronautical weather chart ! - Copyright ORBIFLY December 2007 - Disclaimer

ORBIFLY MET'MAP TEAM :

Programming & Development : Alexandra Zaïnal
Concept & Development : Baudouin d'Aumeries
Co-Development & Prog : Marc-Olivier Méhu
Technical & hardware support : Manuel Goepfert

Contact : metmap@orbifly.com




SOURCES & CREDITS :

   NOAA